sensor_id;sensor_type;location;lat;lon;timestamp;P1;durP1;ratioP1;P2;durP2;ratioP2
35679;SDS011;21803;53.586;10.040;2022-09-13T00:02:11;0.80;;;0.80;;
35679;SDS011;21803;53.586;10.040;2022-09-13T00:04:37;0.82;;;0.80;;
35679;SDS011;21803;53.586;10.040;2022-09-13T00:07:02;1.10;;;0.90;;
35679;SDS011;21803;53.586;10.040;2022-09-13T00:09:28;0.70;;;0.70;;
35679;SDS011;21803;53.586;10.040;2022-09-13T00:11:53;1.27;;;1.10;;
35679;SDS011;21803;53.586;10.040;2022-09-13T00:14:19;0.80;;;0.80;;
35679;SDS011;21803;53.586;10.040;2022-09-13T00:16:44;0.90;;;0.90;;
35679;SDS011;21803;53.586;10.040;2022-09-13T00:19:10;1.00;;;0.90;;
35679;SDS011;21803;53.586;10.040;2022-09-13T00:21:35;0.70;;;0.70;;
35679;SDS011;21803;53.586;10.040;2022-09-13T00:24:01;0.88;;;0.80;;
35679;SDS011;21803;53.586;10.040;2022-09-13T00:26:27;0.85;;;0.85;;
35679;SDS011;21803;53.586;10.040;2022-09-13T00:28:56;1.20;;;1.08;;
35679;SDS011;21803;53.586;10.040;2022-09-13T00:31:23;0.80;;;0.80;;
35679;SDS011;21803;53.586;10.040;2022-09-13T00:33:51;0.80;;;0.80;;
35679;SDS011;21803;53.586;10.040;2022-09-13T00:36:16;0.70;;;0.70;;
35679;SDS011;21803;53.586;10.040;2022-09-13T00:38:42;0.93;;;0.82;;
35679;SDS011;21803;53.586;10.040;2022-09-13T00:41:15;0.82;;;0.80;;
35679;SDS011;21803;53.586;10.040;2022-09-13T00:46:19;0.80;;;0.80;;
35679;SDS011;21803;53.586;10.040;2022-09-13T00:49:13;1.05;;;0.90;;
35679;SDS011;21803;53.586;10.040;2022-09-13T00:51:49;0.80;;;0.70;;
35679;SDS011;21803;53.586;10.040;2022-09-13T00:54:18;0.73;;;0.70;;
35679;SDS011;21803;53.586;10.040;2022-09-13T00:56:49;0.85;;;0.80;;
35679;SDS011;21803;53.586;10.040;2022-09-13T00:59:23;0.77;;;0.70;;
35679;SDS011;21803;53.586;10.040;2022-09-13T01:01:53;0.82;;;0.80;;
35679;SDS011;21803;53.586;10.040;2022-09-13T01:04:21;0.98;;;0.90;;
35679;SDS011;21803;53.586;10.040;2022-09-13T01:06:49;1.17;;;0.90;;
35679;SDS011;21803;53.586;10.040;2022-09-13T01:09:18;0.70;;;0.70;;
35679;SDS011;21803;53.586;10.040;2022-09-13T01:11:51;1.02;;;0.90;;
35679;SDS011;21803;53.586;10.040;2022-09-13T01:14:28;1.45;;;0.80;;
35679;SDS011;21803;53.586;10.040;2022-09-13T01:16:57;0.60;;;0.60;;
35679;SDS011;21803;53.586;10.040;2022-09-13T01:19:23;1.17;;;1.00;;
35679;SDS011;21803;53.586;10.040;2022-09-13T01:22:05;1.00;;;0.80;;
35679;SDS011;21803;53.586;10.040;2022-09-13T01:25:01;0.80;;;0.80;;
35679;SDS011;21803;53.586;10.040;2022-09-13T01:27:46;0.70;;;0.70;;
35679;SDS011;21803;53.586;10.040;2022-09-13T01:30:41;0.80;;;0.80;;
35679;SDS011;21803;53.586;10.040;2022-09-13T01:33:36;0.80;;;0.80;;
35679;SDS011;21803;53.586;10.040;2022-09-13T01:36:15;0.90;;;0.90;;
35679;SDS011;21803;53.586;10.040;2022-09-13T01:39:03;0.93;;;0.80;;
35679;SDS011;21803;53.586;10.040;2022-09-13T01:41:36;0.80;;;0.80;;
35679;SDS011;21803;53.586;10.040;2022-09-13T01:44:12;0.82;;;0.80;;
35679;SDS011;21803;53.586;10.040;2022-09-13T02:00:26;1.00;;;0.90;;
35679;SDS011;21803;53.586;10.040;2022-09-13T02:03:05;0.90;;;0.85;;
35679;SDS011;21803;53.586;10.040;2022-09-13T02:06:02;0.70;;;0.70;;
35679;SDS011;21803;53.586;10.040;2022-09-13T02:11:20;2.05;;;1.00;;
35679;SDS011;21803;53.586;10.040;2022-09-13T02:13:56;1.13;;;1.02;;
35679;SDS011;21803;53.586;10.040;2022-09-13T02:16:49;1.00;;;0.88;;
35679;SDS011;21803;53.586;10.040;2022-09-13T02:19:25;0.82;;;0.80;;
35679;SDS011;21803;53.586;10.040;2022-09-13T02:21:58;0.75;;;0.75;;
35679;SDS011;21803;53.586;10.040;2022-09-13T02:24:31;0.70;;;0.70;;
35679;SDS011;21803;53.586;10.040;2022-09-13T02:27:02;0.95;;;0.80;;
35679;SDS011;21803;53.586;10.040;2022-09-13T02:29:35;0.80;;;0.80;;
35679;SDS011;21803;53.586;10.040;2022-09-13T02:32:26;0.80;;;0.80;;
35679;SDS011;21803;53.586;10.040;2022-09-13T02:34:54;1.05;;;0.95;;
35679;SDS011;21803;53.586;10.040;2022-09-13T02:37:28;0.80;;;0.80;;
35679;SDS011;21803;53.586;10.040;2022-09-13T02:39:58;1.00;;;0.88;;
35679;SDS011;21803;53.586;10.040;2022-09-13T02:42:42;0.88;;;0.88;;
35679;SDS011;21803;53.586;10.040;2022-09-13T02:45:12;0.75;;;0.75;;
35679;SDS011;21803;53.586;10.040;2022-09-13T02:47:58;1.63;;;0.95;;
35679;SDS011;21803;53.586;10.040;2022-09-13T02:53:04;1.00;;;0.90;;
35679;SDS011;21803;53.586;10.040;2022-09-13T02:59:18;0.80;;;0.80;;
35679;SDS011;21803;53.586;10.040;2022-09-13T03:01:48;1.02;;;0.93;;
35679;SDS011;21803;53.586;10.040;2022-09-13T03:04:18;1.08;;;0.98;;
35679;SDS011;21803;53.586;10.040;2022-09-13T03:06:44;0.70;;;0.70;;
35679;SDS011;21803;53.586;10.040;2022-09-13T03:09:09;0.90;;;0.90;;
35679;SDS011;21803;53.586;10.040;2022-09-13T03:25:07;1.10;;;0.90;;
35679;SDS011;21803;53.586;10.040;2022-09-13T03:30:43;1.00;;;0.90;;
35679;SDS011;21803;53.586;10.040;2022-09-13T03:33:51;0.98;;;0.90;;
35679;SDS011;21803;53.586;10.040;2022-09-13T03:36:20;1.15;;;1.05;;
35679;SDS011;21803;53.586;10.040;2022-09-13T03:41:52;0.80;;;0.80;;
35679;SDS011;21803;53.586;10.040;2022-09-13T03:44:22;1.00;;;0.90;;
35679;SDS011;21803;53.586;10.040;2022-09-13T03:46:54;1.40;;;1.13;;
35679;SDS011;21803;53.586;10.040;2022-09-13T03:49:24;1.00;;;0.90;;
35679;SDS011;21803;53.586;10.040;2022-09-13T03:51:51;1.00;;;0.90;;
35679;SDS011;21803;53.586;10.040;2022-09-13T03:54:20;0.82;;;0.82;;
35679;SDS011;21803;53.586;10.040;2022-09-13T03:57:07;1.10;;;0.93;;
35679;SDS011;21803;53.586;10.040;2022-09-13T03:59:45;0.95;;;0.90;;
35679;SDS011;21803;53.586;10.040;2022-09-13T04:02:12;1.00;;;0.90;;
35679;SDS011;21803;53.586;10.040;2022-09-13T04:04:39;0.82;;;0.82;;
35679;SDS011;21803;53.586;10.040;2022-09-13T04:07:06;1.10;;;1.00;;
35679;SDS011;21803;53.586;10.040;2022-09-13T04:09:33;1.10;;;1.00;;
35679;SDS011;21803;53.586;10.040;2022-09-13T04:11:59;1.20;;;1.10;;
35679;SDS011;21803;53.586;10.040;2022-09-13T04:14:24;1.00;;;0.90;;
35679;SDS011;21803;53.586;10.040;2022-09-13T04:16:51;0.90;;;0.90;;
35679;SDS011;21803;53.586;10.040;2022-09-13T04:19:18;0.90;;;0.90;;
35679;SDS011;21803;53.586;10.040;2022-09-13T04:21:45;1.10;;;1.00;;
35679;SDS011;21803;53.586;10.040;2022-09-13T04:24:15;1.15;;;0.98;;
35679;SDS011;21803;53.586;10.040;2022-09-13T04:26:40;0.95;;;0.95;;
35679;SDS011;21803;53.586;10.040;2022-09-13T04:29:06;1.35;;;1.10;;
35679;SDS011;21803;53.586;10.040;2022-09-13T04:31:32;1.00;;;0.90;;
35679;SDS011;21803;53.586;10.040;2022-09-13T04:33:57;0.80;;;0.80;;
35679;SDS011;21803;53.586;10.040;2022-09-13T04:36:24;0.70;;;0.70;;
35679;SDS011;21803;53.586;10.040;2022-09-13T04:38:50;0.80;;;0.80;;
35679;SDS011;21803;53.586;10.040;2022-09-13T04:41:15;1.02;;;1.00;;
35679;SDS011;21803;53.586;10.040;2022-09-13T04:43:41;1.10;;;1.00;;
35679;SDS011;21803;53.586;10.040;2022-09-13T04:46:07;1.65;;;0.88;;
35679;SDS011;21803;53.586;10.040;2022-09-13T04:48:33;1.17;;;1.00;;
35679;SDS011;21803;53.586;10.040;2022-09-13T04:51:02;1.20;;;1.10;;
35679;SDS011;21803;53.586;10.040;2022-09-13T04:53:29;1.10;;;1.00;;
35679;SDS011;21803;53.586;10.040;2022-09-13T04:56:01;0.80;;;0.80;;
35679;SDS011;21803;53.586;10.040;2022-09-13T04:58:29;1.10;;;1.00;;
35679;SDS011;21803;53.586;10.040;2022-09-13T05:01:01;1.10;;;1.00;;
35679;SDS011;21803;53.586;10.040;2022-09-13T05:03:28;0.90;;;0.88;;
35679;SDS011;21803;53.586;10.040;2022-09-13T05:05:59;1.10;;;0.95;;
35679;SDS011;21803;53.586;10.040;2022-09-13T05:08:26;1.30;;;1.20;;
35679;SDS011;21803;53.586;10.040;2022-09-13T05:10:52;1.00;;;0.90;;
35679;SDS011;21803;53.586;10.040;2022-09-13T05:13:17;1.00;;;0.90;;
35679;SDS011;21803;53.586;10.040;2022-09-13T05:15:43;1.02;;;0.93;;
35679;SDS011;21803;53.586;10.040;2022-09-13T05:18:08;1.00;;;0.90;;
35679;SDS011;21803;53.586;10.040;2022-09-13T05:20:34;1.10;;;1.00;;
35679;SDS011;21803;53.586;10.040;2022-09-13T05:22:59;1.13;;;0.80;;
35679;SDS011;21803;53.586;10.040;2022-09-13T05:25:25;1.20;;;1.08;;
35679;SDS011;21803;53.586;10.040;2022-09-13T05:27:50;2.08;;;0.93;;
35679;SDS011;21803;53.586;10.040;2022-09-13T05:30:16;1.17;;;1.08;;
35679;SDS011;21803;53.586;10.040;2022-09-13T05:32:41;0.93;;;0.90;;
35679;SDS011;21803;53.586;10.040;2022-09-13T05:35:07;1.08;;;0.90;;
35679;SDS011;21803;53.586;10.040;2022-09-13T05:37:33;1.10;;;1.00;;
35679;SDS011;21803;53.586;10.040;2022-09-13T05:39:58;0.90;;;0.80;;
35679;SDS011;21803;53.586;10.040;2022-09-13T05:42:24;1.15;;;0.90;;
35679;SDS011;21803;53.586;10.040;2022-09-13T05:44:49;1.10;;;1.00;;
35679;SDS011;21803;53.586;10.040;2022-09-13T05:47:15;1.17;;;1.08;;
35679;SDS011;21803;53.586;10.040;2022-09-13T05:49:41;0.95;;;0.80;;
35679;SDS011;21803;53.586;10.040;2022-09-13T05:52:06;1.10;;;1.00;;
35679;SDS011;21803;53.586;10.040;2022-09-13T05:54:32;1.00;;;0.90;;
35679;SDS011;21803;53.586;10.040;2022-09-13T05:56:58;1.10;;;1.00;;
35679;SDS011;21803;53.586;10.040;2022-09-13T05:59:23;1.08;;;0.98;;
35679;SDS011;21803;53.586;10.040;2022-09-13T06:01:49;1.30;;;1.00;;
35679;SDS011;21803;53.586;10.040;2022-09-13T06:04:14;1.05;;;0.88;;
35679;SDS011;21803;53.586;10.040;2022-09-13T06:06:40;1.15;;;1.00;;
35679;SDS011;21803;53.586;10.040;2022-09-13T06:09:06;1.02;;;0.93;;
35679;SDS011;21803;53.586;10.040;2022-09-13T06:11:32;1.08;;;0.98;;
35679;SDS011;21803;53.586;10.040;2022-09-13T06:13:58;2.25;;;1.00;;
35679;SDS011;21803;53.586;10.040;2022-09-13T06:16:23;1.10;;;1.00;;
35679;SDS011;21803;53.586;10.040;2022-09-13T06:18:49;1.00;;;0.90;;
35679;SDS011;21803;53.586;10.040;2022-09-13T06:21:16;1.10;;;1.00;;
35679;SDS011;21803;53.586;10.040;2022-09-13T06:23:44;1.20;;;1.10;;
35679;SDS011;21803;53.586;10.040;2022-09-13T06:26:15;1.00;;;0.85;;
35679;SDS011;21803;53.586;10.040;2022-09-13T06:28:45;1.10;;;1.02;;
35679;SDS011;21803;53.586;10.040;2022-09-13T06:31:13;1.13;;;1.02;;
35679;SDS011;21803;53.586;10.040;2022-09-13T06:33:40;1.20;;;1.10;;
35679;SDS011;21803;53.586;10.040;2022-09-13T06:36:11;0.80;;;0.80;;
35679;SDS011;21803;53.586;10.040;2022-09-13T06:38:44;1.20;;;1.05;;
35679;SDS011;21803;53.586;10.040;2022-09-13T06:41:13;1.40;;;1.10;;
35679;SDS011;21803;53.586;10.040;2022-09-13T06:43:42;1.10;;;0.95;;
35679;SDS011;21803;53.586;10.040;2022-09-13T06:46:09;1.13;;;1.02;;
35679;SDS011;21803;53.586;10.040;2022-09-13T06:48:37;1.30;;;1.20;;
35679;SDS011;21803;53.586;10.040;2022-09-13T06:51:11;1.25;;;1.02;;
35679;SDS011;21803;53.586;10.040;2022-09-13T06:53:38;0.93;;;0.90;;
35679;SDS011;21803;53.586;10.040;2022-09-13T06:56:06;1.23;;;1.05;;
35679;SDS011;21803;53.586;10.040;2022-09-13T06:58:36;1.45;;;0.90;;
35679;SDS011;21803;53.586;10.040;2022-09-13T07:03:40;0.82;;;0.82;;
35679;SDS011;21803;53.586;10.040;2022-09-13T07:06:11;1.23;;;1.00;;
35679;SDS011;21803;53.586;10.040;2022-09-13T07:08:39;0.95;;;0.90;;
35679;SDS011;21803;53.586;10.040;2022-09-13T07:11:06;1.42;;;1.23;;
35679;SDS011;21803;53.586;10.040;2022-09-13T07:13:33;1.20;;;1.10;;
35679;SDS011;21803;53.586;10.040;2022-09-13T07:16:06;1.10;;;1.00;;
35679;SDS011;21803;53.586;10.040;2022-09-13T07:18:36;1.02;;;0.90;;
35679;SDS011;21803;53.586;10.040;2022-09-13T07:21:06;1.75;;;1.08;;
35679;SDS011;21803;53.586;10.040;2022-09-13T07:23:33;1.60;;;1.10;;
35679;SDS011;21803;53.586;10.040;2022-09-13T07:26:00;1.10;;;1.00;;
35679;SDS011;21803;53.586;10.040;2022-09-13T07:28:29;1.00;;;0.90;;
35679;SDS011;21803;53.586;10.040;2022-09-13T07:33:44;0.90;;;0.90;;
35679;SDS011;21803;53.586;10.040;2022-09-13T07:36:11;1.10;;;1.00;;
35679;SDS011;21803;53.586;10.040;2022-09-13T07:38:38;1.35;;;1.10;;
35679;SDS011;21803;53.586;10.040;2022-09-13T07:41:07;1.20;;;1.00;;
35679;SDS011;21803;53.586;10.040;2022-09-13T07:43:36;0.93;;;0.90;;
35679;SDS011;21803;53.586;10.040;2022-09-13T07:46:06;1.13;;;0.90;;
35679;SDS011;21803;53.586;10.040;2022-09-13T07:48:37;1.17;;;0.90;;
35679;SDS011;21803;53.586;10.040;2022-09-13T07:51:08;1.10;;;1.00;;
35679;SDS011;21803;53.586;10.040;2022-09-13T07:53:35;1.38;;;0.90;;
35679;SDS011;21803;53.586;10.040;2022-09-13T07:56:05;1.15;;;0.90;;
35679;SDS011;21803;53.586;10.040;2022-09-13T07:58:33;1.10;;;1.00;;
35679;SDS011;21803;53.586;10.040;2022-09-13T08:01:10;1.15;;;1.00;;
35679;SDS011;21803;53.586;10.040;2022-09-13T08:04:10;1.05;;;0.95;;
35679;SDS011;21803;53.586;10.040;2022-09-13T08:06:43;1.45;;;1.10;;
35679;SDS011;21803;53.586;10.040;2022-09-13T08:09:10;1.05;;;0.95;;
35679;SDS011;21803;53.586;10.040;2022-09-13T08:11:41;1.23;;;1.00;;
35679;SDS011;21803;53.586;10.040;2022-09-13T08:14:13;1.10;;;1.00;;
35679;SDS011;21803;53.586;10.040;2022-09-13T08:16:40;1.00;;;0.90;;
35679;SDS011;21803;53.586;10.040;2022-09-13T08:19:06;1.13;;;1.02;;
35679;SDS011;21803;53.586;10.040;2022-09-13T08:21:33;0.82;;;0.82;;
35679;SDS011;21803;53.586;10.040;2022-09-13T08:24:01;1.30;;;1.00;;
35679;SDS011;21803;53.586;10.040;2022-09-13T08:26:28;1.13;;;1.02;;
35679;SDS011;21803;53.586;10.040;2022-09-13T08:28:56;1.25;;;1.00;;
35679;SDS011;21803;53.586;10.040;2022-09-13T08:31:22;1.67;;;1.00;;
35679;SDS011;21803;53.586;10.040;2022-09-13T08:33:48;1.10;;;1.00;;
35679;SDS011;21803;53.586;10.040;2022-09-13T08:36:14;1.08;;;0.98;;
35679;SDS011;21803;53.586;10.040;2022-09-13T08:38:47;1.13;;;1.00;;
35679;SDS011;21803;53.586;10.040;2022-09-13T08:43:50;0.90;;;0.90;;
35679;SDS011;21803;53.586;10.040;2022-09-13T08:46:25;1.15;;;0.90;;
35679;SDS011;21803;53.586;10.040;2022-09-13T08:48:53;0.88;;;0.80;;
35679;SDS011;21803;53.586;10.040;2022-09-13T08:51:27;0.80;;;0.80;;
35679;SDS011;21803;53.586;10.040;2022-09-13T08:53:54;1.00;;;0.90;;
35679;SDS011;21803;53.586;10.040;2022-09-13T08:56:22;1.00;;;0.90;;
35679;SDS011;21803;53.586;10.040;2022-09-13T09:04:37;1.20;;;1.00;;
35679;SDS011;21803;53.586;10.040;2022-09-13T09:07:05;1.10;;;1.00;;
35679;SDS011;21803;53.586;10.040;2022-09-13T09:09:44;1.00;;;0.90;;
35679;SDS011;21803;53.586;10.040;2022-09-13T09:12:26;1.17;;;0.93;;
35679;SDS011;21803;53.586;10.040;2022-09-13T09:16:10;1.10;;;1.00;;
35679;SDS011;21803;53.586;10.040;2022-09-13T09:18:17;1.00;;;0.90;;
35679;SDS011;21803;53.586;10.040;2022-09-13T09:20:51;0.95;;;0.90;;
35679;SDS011;21803;53.586;10.040;2022-09-13T09:26:15;1.08;;;0.88;;
35679;SDS011;21803;53.586;10.040;2022-09-13T09:36:55;0.80;;;0.80;;
35679;SDS011;21803;53.586;10.040;2022-09-13T09:39:31;0.80;;;0.80;;
35679;SDS011;21803;53.586;10.040;2022-09-13T09:41:57;1.48;;;0.93;;
35679;SDS011;21803;53.586;10.040;2022-09-13T09:44:27;0.75;;;0.75;;
35679;SDS011;21803;53.586;10.040;2022-09-13T09:47:17;0.80;;;0.80;;
35679;SDS011;21803;53.586;10.040;2022-09-13T09:55:15;0.82;;;0.82;;
35679;SDS011;21803;53.586;10.040;2022-09-13T09:57:54;0.95;;;0.85;;
35679;SDS011;21803;53.586;10.040;2022-09-13T10:00:26;0.65;;;0.65;;
35679;SDS011;21803;53.586;10.040;2022-09-13T10:02:55;0.90;;;0.90;;
35679;SDS011;21803;53.586;10.040;2022-09-13T10:05:45;1.02;;;0.90;;
35679;SDS011;21803;53.586;10.040;2022-09-13T10:08:29;1.15;;;0.90;;
35679;SDS011;21803;53.586;10.040;2022-09-13T10:10:57;0.75;;;0.73;;
35679;SDS011;21803;53.586;10.040;2022-09-13T10:13:24;1.25;;;0.90;;
35679;SDS011;21803;53.586;10.040;2022-09-13T10:15:55;0.80;;;0.80;;
35679;SDS011;21803;53.586;10.040;2022-09-13T10:18:22;0.80;;;0.80;;
35679;SDS011;21803;53.586;10.040;2022-09-13T10:21:00;1.10;;;0.77;;
35679;SDS011;21803;53.586;10.040;2022-09-13T10:23:25;0.88;;;0.88;;
35679;SDS011;21803;53.586;10.040;2022-09-13T10:26:24;1.00;;;0.80;;
35679;SDS011;21803;53.586;10.040;2022-09-13T10:28:58;1.02;;;0.82;;
35679;SDS011;21803;53.586;10.040;2022-09-13T10:31:30;1.10;;;1.00;;
35679;SDS011;21803;53.586;10.040;2022-09-13T10:34:02;0.70;;;0.63;;
35679;SDS011;21803;53.586;10.040;2022-09-13T10:36:40;1.00;;;0.90;;
35679;SDS011;21803;53.586;10.040;2022-09-13T10:39:12;1.00;;;0.90;;
35679;SDS011;21803;53.586;10.040;2022-09-13T10:41:41;1.00;;;0.90;;
35679;SDS011;21803;53.586;10.040;2022-09-13T10:44:52;0.70;;;0.70;;
35679;SDS011;21803;53.586;10.040;2022-09-13T10:47:32;1.20;;;0.95;;
35679;SDS011;21803;53.586;10.040;2022-09-13T10:50:09;1.00;;;0.90;;
35679;SDS011;21803;53.586;10.040;2022-09-13T10:52:44;0.75;;;0.75;;
35679;SDS011;21803;53.586;10.040;2022-09-13T10:57:43;1.33;;;0.90;;
35679;SDS011;21803;53.586;10.040;2022-09-13T11:00:10;0.70;;;0.70;;
35679;SDS011;21803;53.586;10.040;2022-09-13T11:02:56;0.98;;;0.82;;
35679;SDS011;21803;53.586;10.040;2022-09-13T11:08:26;0.80;;;0.70;;
35679;SDS011;21803;53.586;10.040;2022-09-13T11:16:26;1.33;;;0.77;;
35679;SDS011;21803;53.586;10.040;2022-09-13T11:21:49;1.20;;;0.80;;
35679;SDS011;21803;53.586;10.040;2022-09-13T11:27:13;1.02;;;0.85;;
35679;SDS011;21803;53.586;10.040;2022-09-13T11:29:59;0.80;;;0.80;;
35679;SDS011;21803;53.586;10.040;2022-09-13T11:35:41;0.80;;;0.70;;
35679;SDS011;21803;53.586;10.040;2022-09-13T11:38:28;1.40;;;0.70;;
35679;SDS011;21803;53.586;10.040;2022-09-13T11:41:01;0.80;;;0.80;;
35679;SDS011;21803;53.586;10.040;2022-09-13T11:43:33;0.93;;;0.82;;
35679;SDS011;21803;53.586;10.040;2022-09-13T11:46:19;0.90;;;0.70;;
35679;SDS011;21803;53.586;10.040;2022-09-13T11:51:35;0.65;;;0.60;;
35679;SDS011;21803;53.586;10.040;2022-09-13T11:54:44;2.00;;;0.80;;
35679;SDS011;21803;53.586;10.040;2022-09-13T11:57:26;1.35;;;0.90;;
35679;SDS011;21803;53.586;10.040;2022-09-13T12:00:08;1.45;;;0.80;;
35679;SDS011;21803;53.586;10.040;2022-09-13T12:02:48;0.60;;;0.60;;
35679;SDS011;21803;53.586;10.040;2022-09-13T12:05:19;1.00;;;0.80;;
35679;SDS011;21803;53.586;10.040;2022-09-13T12:13:40;1.35;;;0.70;;
35679;SDS011;21803;53.586;10.040;2022-09-13T12:16:08;0.63;;;0.60;;
35679;SDS011;21803;53.586;10.040;2022-09-13T12:18:39;0.70;;;0.70;;
35679;SDS011;21803;53.586;10.040;2022-09-13T12:21:09;0.82;;;0.70;;
35679;SDS011;21803;53.586;10.040;2022-09-13T12:26:14;1.13;;;0.70;;
35679;SDS011;21803;53.586;10.040;2022-09-13T12:28:51;0.80;;;0.80;;
35679;SDS011;21803;53.586;10.040;2022-09-13T12:31:22;1.00;;;0.77;;
35679;SDS011;21803;53.586;10.040;2022-09-13T12:33:53;0.82;;;0.75;;
35679;SDS011;21803;53.586;10.040;2022-09-13T12:39:43;1.00;;;0.90;;
35679;SDS011;21803;53.586;10.040;2022-09-13T12:53:33;0.65;;;0.60;;
35679;SDS011;21803;53.586;10.040;2022-09-13T12:59:18;0.90;;;0.68;;
35679;SDS011;21803;53.586;10.040;2022-09-13T13:01:48;1.05;;;0.80;;
35679;SDS011;21803;53.586;10.040;2022-09-13T13:04:17;1.23;;;0.70;;
35679;SDS011;21803;53.586;10.040;2022-09-13T13:06:50;0.90;;;0.80;;
35679;SDS011;21803;53.586;10.040;2022-09-13T13:09:35;2.28;;;0.80;;
35679;SDS011;21803;53.586;10.040;2022-09-13T13:12:09;0.85;;;0.77;;
35679;SDS011;21803;53.586;10.040;2022-09-13T13:14:55;1.13;;;0.80;;
35679;SDS011;21803;53.586;10.040;2022-09-13T13:17:38;0.70;;;0.70;;
35679;SDS011;21803;53.586;10.040;2022-09-13T13:26:03;1.17;;;0.80;;
35679;SDS011;21803;53.586;10.040;2022-09-13T13:39:03;0.70;;;0.60;;
35679;SDS011;21803;53.586;10.040;2022-09-13T13:46:41;0.80;;;0.77;;
35679;SDS011;21803;53.586;10.040;2022-09-13T13:57:23;0.93;;;0.60;;
35679;SDS011;21803;53.586;10.040;2022-09-13T14:00:11;1.00;;;0.70;;
35679;SDS011;21803;53.586;10.040;2022-09-13T14:02:39;1.02;;;0.68;;
35679;SDS011;21803;53.586;10.040;2022-09-13T14:05:23;1.02;;;0.68;;
35679;SDS011;21803;53.586;10.040;2022-09-13T14:19:14;0.90;;;0.60;;
35679;SDS011;21803;53.586;10.040;2022-09-13T14:22:05;0.95;;;0.70;;
35679;SDS011;21803;53.586;10.040;2022-09-13T14:24:38;0.93;;;0.73;;
35679;SDS011;21803;53.586;10.040;2022-09-13T14:27:09;0.98;;;0.70;;
35679;SDS011;21803;53.586;10.040;2022-09-13T14:29:41;0.80;;;0.70;;
35679;SDS011;21803;53.586;10.040;2022-09-13T14:32:10;0.60;;;0.60;;
35679;SDS011;21803;53.586;10.040;2022-09-13T14:34:48;1.13;;;0.60;;
35679;SDS011;21803;53.586;10.040;2022-09-13T14:37:16;1.30;;;0.70;;
35679;SDS011;21803;53.586;10.040;2022-09-13T14:39:53;1.27;;;0.75;;
35679;SDS011;21803;53.586;10.040;2022-09-13T14:42:20;3.47;;;0.80;;
35679;SDS011;21803;53.586;10.040;2022-09-13T14:44:45;1.33;;;1.08;;
35679;SDS011;21803;53.586;10.040;2022-09-13T14:47:26;1.20;;;0.70;;
35679;SDS011;21803;53.586;10.040;2022-09-13T14:50:11;0.70;;;0.60;;
35679;SDS011;21803;53.586;10.040;2022-09-13T14:52:56;1.70;;;0.52;;
35679;SDS011;21803;53.586;10.040;2022-09-13T14:55:38;2.38;;;0.70;;
35679;SDS011;21803;53.586;10.040;2022-09-13T14:58:14;0.85;;;0.60;;
35679;SDS011;21803;53.586;10.040;2022-09-13T15:01:08;1.42;;;0.82;;
35679;SDS011;21803;53.586;10.040;2022-09-13T15:03:37;0.80;;;0.70;;
35679;SDS011;21803;53.586;10.040;2022-09-13T15:06:06;0.80;;;0.80;;
35679;SDS011;21803;53.586;10.040;2022-09-13T15:10:57;0.68;;;0.68;;
35679;SDS011;21803;53.586;10.040;2022-09-13T15:13:27;1.33;;;0.70;;
35679;SDS011;21803;53.586;10.040;2022-09-13T15:15:53;1.05;;;0.70;;
35679;SDS011;21803;53.586;10.040;2022-09-13T15:21:01;0.52;;;0.52;;
35679;SDS011;21803;53.586;10.040;2022-09-13T15:23:30;0.60;;;0.55;;
35679;SDS011;21803;53.586;10.040;2022-09-13T15:26:04;0.68;;;0.60;;
35679;SDS011;21803;53.586;10.040;2022-09-13T15:28:46;1.58;;;0.70;;
35679;SDS011;21803;53.586;10.040;2022-09-13T15:31:21;1.45;;;0.70;;
35679;SDS011;21803;53.586;10.040;2022-09-13T15:33:48;0.88;;;0.70;;
35679;SDS011;21803;53.586;10.040;2022-09-13T15:36:37;1.45;;;0.82;;
35679;SDS011;21803;53.586;10.040;2022-09-13T15:41:49;0.70;;;0.65;;
35679;SDS011;21803;53.586;10.040;2022-09-13T15:44:20;1.10;;;0.57;;
35679;SDS011;21803;53.586;10.040;2022-09-13T15:46:49;0.75;;;0.70;;
35679;SDS011;21803;53.586;10.040;2022-09-13T15:49:17;0.75;;;0.65;;
35679;SDS011;21803;53.586;10.040;2022-09-13T15:51:45;0.52;;;0.52;;
35679;SDS011;21803;53.586;10.040;2022-09-13T15:54:12;0.90;;;0.70;;
35679;SDS011;21803;53.586;10.040;2022-09-13T15:56:40;0.65;;;0.50;;
35679;SDS011;21803;53.586;10.040;2022-09-13T15:59:11;0.95;;;0.70;;
35679;SDS011;21803;53.586;10.040;2022-09-13T16:01:38;1.23;;;0.70;;
35679;SDS011;21803;53.586;10.040;2022-09-13T16:04:03;0.52;;;0.50;;
35679;SDS011;21803;53.586;10.040;2022-09-13T16:06:30;1.65;;;0.60;;
35679;SDS011;21803;53.586;10.040;2022-09-13T16:08:55;2.47;;;0.77;;
35679;SDS011;21803;53.586;10.040;2022-09-13T16:11:21;0.75;;;0.60;;
35679;SDS011;21803;53.586;10.040;2022-09-13T16:13:46;0.90;;;0.70;;
35679;SDS011;21803;53.586;10.040;2022-09-13T16:16:12;0.90;;;0.68;;
35679;SDS011;21803;53.586;10.040;2022-09-13T16:18:38;0.88;;;0.65;;
35679;SDS011;21803;53.586;10.040;2022-09-13T16:21:04;1.10;;;0.60;;
35679;SDS011;21803;53.586;10.040;2022-09-13T16:23:29;2.13;;;0.77;;
35679;SDS011;21803;53.586;10.040;2022-09-13T16:25:55;1.02;;;0.60;;
35679;SDS011;21803;53.586;10.040;2022-09-13T16:28:23;0.90;;;0.60;;
35679;SDS011;21803;53.586;10.040;2022-09-13T16:30:49;0.70;;;0.60;;
35679;SDS011;21803;53.586;10.040;2022-09-13T16:33:15;0.63;;;0.57;;
35679;SDS011;21803;53.586;10.040;2022-09-13T16:35:41;0.93;;;0.63;;
35679;SDS011;21803;53.586;10.040;2022-09-13T16:38:08;1.00;;;0.80;;
35679;SDS011;21803;53.586;10.040;2022-09-13T16:40:34;0.93;;;0.57;;
35679;SDS011;21803;53.586;10.040;2022-09-13T16:43:00;0.65;;;0.60;;
35679;SDS011;21803;53.586;10.040;2022-09-13T16:45:25;1.60;;;0.73;;
35679;SDS011;21803;53.586;10.040;2022-09-13T16:47:51;1.08;;;0.63;;
35679;SDS011;21803;53.586;10.040;2022-09-13T16:50:16;0.98;;;0.70;;
35679;SDS011;21803;53.586;10.040;2022-09-13T16:52:43;0.88;;;0.50;;
35679;SDS011;21803;53.586;10.040;2022-09-13T16:55:09;0.95;;;0.70;;
35679;SDS011;21803;53.586;10.040;2022-09-13T16:57:34;1.50;;;0.65;;
35679;SDS011;21803;53.586;10.040;2022-09-13T17:00:01;1.13;;;0.70;;
35679;SDS011;21803;53.586;10.040;2022-09-13T17:02:32;1.38;;;0.70;;
35679;SDS011;21803;53.586;10.040;2022-09-13T17:04:58;0.93;;;0.45;;
35679;SDS011;21803;53.586;10.040;2022-09-13T17:07:23;0.70;;;0.60;;
35679;SDS011;21803;53.586;10.040;2022-09-13T17:09:49;1.13;;;0.50;;
35679;SDS011;21803;53.586;10.040;2022-09-13T17:12:14;0.60;;;0.50;;
35679;SDS011;21803;53.586;10.040;2022-09-13T17:14:40;0.82;;;0.60;;
35679;SDS011;21803;53.586;10.040;2022-09-13T17:17:11;1.33;;;0.60;;
35679;SDS011;21803;53.586;10.040;2022-09-13T17:19:39;0.88;;;0.60;;
35679;SDS011;21803;53.586;10.040;2022-09-13T17:22:04;0.77;;;0.70;;
35679;SDS011;21803;53.586;10.040;2022-09-13T17:24:32;1.75;;;0.60;;
35679;SDS011;21803;53.586;10.040;2022-09-13T17:26:58;2.38;;;0.70;;
35679;SDS011;21803;53.586;10.040;2022-09-13T17:29:24;2.58;;;0.65;;
35679;SDS011;21803;53.586;10.040;2022-09-13T17:31:54;1.10;;;0.70;;
35679;SDS011;21803;53.586;10.040;2022-09-13T17:34:20;1.20;;;0.50;;
35679;SDS011;21803;53.586;10.040;2022-09-13T17:36:46;0.88;;;0.60;;
35679;SDS011;21803;53.586;10.040;2022-09-13T17:39:11;0.55;;;0.50;;
35679;SDS011;21803;53.586;10.040;2022-09-13T17:41:37;0.70;;;0.70;;
35679;SDS011;21803;53.586;10.040;2022-09-13T17:44:02;1.40;;;0.60;;
35679;SDS011;21803;53.586;10.040;2022-09-13T17:46:28;1.13;;;0.65;;
35679;SDS011;21803;53.586;10.040;2022-09-13T17:48:56;0.85;;;0.70;;
35679;SDS011;21803;53.586;10.040;2022-09-13T17:51:28;1.45;;;0.60;;